Terminal Aerodrome Forecast
Issued by NWS

Home | Current Version | Previous Version | Text Only | Print | Product List | Glossary On
Versions: 1 2 3 4 5 6 7 8 9 10 11 12
061
FTUS45 KTFX 251730
TAFLWT
TAF
KLWT 251730Z 2518/2618 31018G30KT P6SM VCSH OVC025
     FM252200 31017G27KT P6SM SCT030 BKN050
     FM260200 31014KT P6SM SCT045 BKN090
     FM260400 26007KT P6SM SCT090=

USA.gov is the U.S. government's official web portal to all federal, state and local government web resources and services.